Time;durP1;ratioP1;P1;durP2;ratioP2;P2;SDS_P1;SDS_P2;PMS_P1;PMS_P2;Temp;Humidity;BMP_temperature;BMP_pressure;BME280_temperature;BME280_humidity;BME280_pressure;Samples;Min_cycle;Max_cycle;Signal;HPM_P1;HPM_P2
2023/02/19 00:01:50;;;;;;;11.63;5.97;;;2.90;99.90;;;;;;4992349;28;20882;-76
2023/02/19 00:04:20;;;;;;;12.27;6.00;;;2.90;99.90;;;;;;4989084;28;20204;-77
2023/02/19 00:06:48;;;;;;;10.70;5.60;;;2.90;99.90;;;;;;4964504;28;20204;-75
2023/02/19 00:09:17;;;;;;;12.03;5.60;;;2.90;99.90;;;;;;4992075;28;20228;-73
2023/02/19 00:11:45;;;;;;;11.37;5.47;;;2.90;99.90;;;;;;4976150;28;20293;-75
2023/02/19 00:14:18;;;;;;;10.50;5.00;;;2.90;99.90;;;;;;4991295;28;20225;-77
2023/02/19 00:16:45;;;;;;;7.20;4.40;;;3.00;99.90;;;;;;4974224;28;20193;-75
2023/02/19 00:19:15;;;;;;;8.17;4.50;;;3.00;99.90;;;;;;4975144;28;20225;-78
2023/02/19 00:21:43;;;;;;;8.73;4.20;;;2.90;99.90;;;;;;5002391;28;20202;-82
2023/02/19 00:24:12;;;;;;;7.47;4.17;;;3.00;99.90;;;;;;5016690;28;20309;-79
2023/02/19 00:26:39;;;;;;;10.60;4.13;;;2.90;99.90;;;;;;4999264;28;20185;-79
2023/02/19 00:29:08;;;;;;;9.47;4.20;;;3.00;99.90;;;;;;4998019;28;20647;-80
2023/02/19 00:31:35;;;;;;;10.70;4.00;;;3.00;99.90;;;;;;4979468;28;20221;-77
2023/02/19 00:34:04;;;;;;;9.70;4.10;;;3.00;99.90;;;;;;4961916;28;20286;-81
2023/02/19 00:36:37;;;;;;;8.83;4.07;;;3.10;99.90;;;;;;5002468;28;20576;-81
2023/02/19 00:39:06;;;;;;;9.97;4.47;;;3.10;99.90;;;;;;4979423;28;20228;-78
2023/02/19 00:41:37;;;;;;;7.43;4.00;;;3.10;99.90;;;;;;4985382;28;20212;-81
2023/02/19 00:44:12;;;;;;;9.00;4.50;;;3.10;99.90;;;;;;4985277;28;20209;-74
2023/02/19 00:46:48;;;;;;;11.30;4.43;;;3.10;99.90;;;;;;4976394;28;20196;-74
2023/02/19 00:49:20;;;;;;;10.40;4.93;;;3.10;99.90;;;;;;4994690;28;20622;-76
2023/02/19 00:51:49;;;;;;;7.50;4.83;;;3.00;99.90;;;;;;4993649;28;20621;-75
2023/02/19 00:54:18;;;;;;;10.37;4.47;;;3.00;99.90;;;;;;4995019;28;20260;-76
2023/02/19 00:56:45;;;;;;;9.37;4.53;;;3.10;99.90;;;;;;4961903;28;20212;-76
2023/02/19 00:59:12;;;;;;;9.70;4.33;;;3.10;99.90;;;;;;4977826;28;20202;-77
2023/02/19 01:01:39;;;;;;;9.83;4.20;;;3.20;99.90;;;;;;4977197;28;20207;-76
2023/02/19 01:04:07;;;;;;;9.23;4.17;;;3.10;99.90;;;;;;4994154;28;20263;-75
2023/02/19 01:06:34;;;;;;;10.30;4.13;;;3.20;99.90;;;;;;4978152;28;20644;-76
2023/02/19 01:09:03;;;;;;;8.83;4.10;;;3.20;99.90;;;;;;5013915;28;20267;-76
2023/02/19 01:11:31;;;;;;;7.27;3.97;;;3.20;99.90;;;;;;4997025;28;20204;-77
2023/02/19 01:14:00;;;;;;;7.13;3.90;;;3.20;99.90;;;;;;4994885;28;20218;-75
2023/02/19 01:16:27;;;;;;;10.73;3.60;;;3.20;99.90;;;;;;5013448;28;20220;-78
2023/02/19 01:18:56;;;;;;;6.53;3.90;;;3.10;99.90;;;;;;4974917;28;20655;-75
2023/02/19 01:21:26;;;;;;;7.53;3.60;;;3.10;99.90;;;;;;4970952;28;20201;-80
2023/02/19 01:23:53;;;;;;;6.50;3.30;;;3.10;99.90;;;;;;4975428;28;20248;-75
2023/02/19 01:26:26;;;;;;;8.30;3.87;;;3.10;99.90;;;;;;4990108;28;20185;-75
2023/02/19 01:28:53;;;;;;;9.63;3.77;;;3.20;99.90;;;;;;4975807;28;20247;-74
2023/02/19 01:31:22;;;;;;;8.00;3.70;;;3.20;99.90;;;;;;5009010;28;20248;-75
2023/02/19 01:34:01;;;;;;;7.00;3.97;;;3.30;99.90;;;;;;5002601;28;20507;-76
2023/02/19 01:36:29;;;;;;;7.20;3.40;;;3.20;99.90;;;;;;4984843;28;20197;-75
2023/02/19 01:38:59;;;;;;;6.90;3.30;;;3.20;99.90;;;;;;4996672;28;20196;-77
2023/02/19 01:41:26;;;;;;;6.87;3.67;;;3.20;99.90;;;;;;4993949;28;20200;-77
2023/02/19 01:44:10;;;;;;;10.17;4.00;;;3.20;99.90;;;;;;4996864;28;20568;-78
2023/02/19 01:46:47;;;;;;;6.80;3.80;;;3.20;99.90;;;;;;4987952;28;20196;-78
2023/02/19 01:49:24;;;;;;;7.50;3.90;;;3.20;99.90;;;;;;4986175;28;20248;-76
2023/02/19 01:52:01;;;;;;;9.03;3.93;;;3.10;99.90;;;;;;4989003;28;20185;-80
2023/02/19 01:54:34;;;;;;;8.03;4.03;;;3.20;99.90;;;;;;4993698;28;20196;-77
2023/02/19 01:57:05;;;;;;;8.87;3.73;;;3.20;99.90;;;;;;4972417;28;20221;-79
2023/02/19 01:59:33;;;;;;;10.43;3.90;;;3.20;99.90;;;;;;4970356;28;20205;-76
2023/02/19 02:02:00;;;;;;;11.80;4.17;;;3.20;99.90;;;;;;4989537;28;20198;-75
2023/02/19 02:04:30;;;;;;;7.13;3.33;;;3.20;99.90;;;;;;4990108;28;20198;-76
2023/02/19 02:06:58;;;;;;;8.43;3.67;;;3.20;99.90;;;;;;4985725;28;20200;-81
2023/02/19 02:12:14;;;;;;;7.47;3.67;;;3.20;99.90;;;;;;4987519;28;20628;-78
2023/02/19 02:14:45;;;;;;;9.53;3.60;;;3.10;99.90;;;;;;4959157;28;20690;-80
2023/02/19 02:17:34;;;;;;;10.23;3.53;;;3.10;99.90;;;;;;4973168;28;20197;-79
2023/02/19 02:20:13;;;;;;;10.73;3.93;;;3.20;99.90;;;;;;4992450;28;20248;-73
2023/02/19 02:23:25;;;;;;;8.90;3.90;;;3.20;99.90;;;;;;5001626;28;20225;-79
2023/02/19 02:25:54;;;;;;;7.43;3.77;;;3.20;99.90;;;;;;4987308;28;20217;-80
2023/02/19 02:28:33;;;;;;;8.80;3.80;;;3.10;99.90;;;;;;4987759;28;20216;-78
2023/02/19 02:31:13;;;;;;;8.97;3.60;;;3.10;99.90;;;;;;4992547;28;20204;-80
2023/02/19 02:34:03;;;;;;;9.20;3.93;;;3.10;99.90;;;;;;4975890;28;20259;-80
2023/02/19 02:36:38;;;;;;;9.77;3.87;;;3.10;99.90;;;;;;4975904;28;20308;-81
2023/02/19 02:39:13;;;;;;;9.43;4.00;;;3.10;99.90;;;;;;4992721;28;20243;-79
2023/02/19 02:41:46;;;;;;;6.00;3.20;;;3.10;99.90;;;;;;4967728;28;20193;-78
2023/02/19 02:44:14;;;;;;;10.17;3.40;;;3.10;99.90;;;;;;4975360;28;20197;-78
2023/02/19 02:46:45;;;;;;;9.07;3.70;;;3.10;99.90;;;;;;4988195;28;20547;-78
2023/02/19 02:49:17;;;;;;;8.53;3.30;;;3.00;99.90;;;;;;4983312;28;20222;-79
2023/02/19 02:51:49;;;;;;;9.63;3.50;;;3.10;99.90;;;;;;4988767;28;20624;-79
2023/02/19 02:57:14;;;;;;;9.57;3.27;;;3.10;99.90;;;;;;4972245;28;20204;-79
2023/02/19 02:59:47;;;;;;;8.20;3.37;;;3.00;99.90;;;;;;4991269;28;20204;-79
2023/02/19 03:02:22;;;;;;;10.00;3.40;;;3.10;99.90;;;;;;4991291;28;20232;-79
2023/02/19 03:08:00;;;;;;;6.30;2.93;;;3.00;99.90;;;;;;5001073;28;21085;-80
2023/02/19 03:10:43;;;;;;;8.30;2.80;;;3.00;99.90;;;;;;4976468;28;20263;-78
2023/02/19 03:19:19;;;;;;;7.57;2.50;;;3.00;99.90;;;;;;4993194;28;20189;-79
2023/02/19 03:22:09;;;;;;;5.90;2.20;;;3.00;99.90;;;;;;4993130;28;20240;-79
2023/02/19 03:27:43;;;;;;;6.20;2.07;;;2.90;99.90;;;;;;4996312;28;20314;-79
2023/02/19 03:30:14;;;;;;;7.93;2.50;;;3.00;99.90;;;;;;4979078;28;20241;-79
2023/02/19 03:32:58;;;;;;;5.70;2.30;;;2.90;99.90;;;;;;4978803;28;20206;-79
2023/02/19 03:35:30;;;;;;;5.47;2.10;;;2.90;99.90;;;;;;4996212;28;20284;-78
2023/02/19 03:38:17;;;;;;;7.80;2.63;;;2.90;99.90;;;;;;4996460;28;20185;-77
2023/02/19 03:41:03;;;;;;;8.60;3.10;;;2.90;99.90;;;;;;4985028;28;20205;-75
2023/02/19 03:44:07;;;;;;;8.07;1.90;;;2.90;99.90;;;;;;4978909;28;20204;-75
2023/02/19 03:47:02;;;;;;;6.40;2.03;;;2.90;99.90;;;;;;4978313;28;20201;-74
2023/02/19 03:49:48;;;;;;;6.40;2.03;;;2.90;99.90;;;;;;4975479;28;20592;-73
2023/02/19 03:52:37;;;;;;;7.27;2.03;;;2.90;99.90;;;;;;4976762;28;20201;-70
2023/02/19 03:55:06;;;;;;;7.43;2.20;;;2.90;99.90;;;;;;4958947;28;20200;-70
2023/02/19 03:58:02;;;;;;;7.50;2.00;;;2.90;99.90;;;;;;4976509;28;20268;-70
2023/02/19 04:00:40;;;;;;;5.27;2.30;;;2.80;99.90;;;;;;4975327;28;20206;-78
2023/02/19 04:03:23;;;;;;;4.43;1.80;;;2.80;99.90;;;;;;4975354;28;20290;-73
2023/02/19 04:05:57;;;;;;;6.27;1.90;;;2.80;99.90;;;;;;4958986;28;20206;-77
2023/02/19 04:08:25;;;;;;;6.37;2.00;;;2.80;99.90;;;;;;4958963;28;20205;-79
2023/02/19 04:10:54;;;;;;;4.43;1.70;;;2.80;99.90;;;;;;4959363;28;20197;-77
2023/02/19 04:13:31;;;;;;;4.93;1.90;;;2.80;99.90;;;;;;4995669;28;20223;-71
2023/02/19 04:16:05;;;;;;;5.67;1.73;;;2.80;99.90;;;;;;4990952;28;20316;-70
2023/02/19 04:18:37;;;;;;;8.47;1.90;;;2.80;99.90;;;;;;4978018;28;20227;-72
2023/02/19 04:21:07;;;;;;;7.37;2.03;;;2.70;99.90;;;;;;4978459;28;20639;-73
2023/02/19 04:23:38;;;;;;;5.70;1.83;;;2.70;99.90;;;;;;4994184;28;20541;-72
2023/02/19 04:26:06;;;;;;;5.67;1.80;;;2.60;99.90;;;;;;4978014;28;20193;-72
2023/02/19 04:28:34;;;;;;;6.37;2.60;;;2.70;99.90;;;;;;4977719;28;20284;-77
2023/02/19 04:31:01;;;;;;;6.77;2.40;;;2.60;99.90;;;;;;4978667;28;20564;-84
2023/02/19 04:33:28;;;;;;;7.03;1.87;;;2.60;99.90;;;;;;4994850;28;20197;-77
2023/02/19 04:35:55;;;;;;;6.67;2.00;;;2.60;99.90;;;;;;4976955;28;20205;-72
2023/02/19 04:38:21;;;;;;;9.33;1.97;;;2.70;99.90;;;;;;4995768;28;20216;-74
2023/02/19 04:40:50;;;;;;;6.57;1.83;;;2.60;99.90;;;;;;4977841;28;20193;-74
2023/02/19 04:43:17;;;;;;;9.60;2.10;;;2.60;99.90;;;;;;4977935;28;20651;-77
2023/02/19 04:45:44;;;;;;;7.03;2.10;;;2.60;99.90;;;;;;4978290;28;20216;-74
2023/02/19 04:48:11;;;;;;;7.07;1.90;;;2.50;99.90;;;;;;4978536;28;20547;-82
2023/02/19 04:50:38;;;;;;;8.43;2.30;;;2.60;99.90;;;;;;4995646;28;20219;-75
2023/02/19 04:53:06;;;;;;;5.87;2.13;;;2.60;99.90;;;;;;4996046;28;20212;-79
2023/02/19 04:55:37;;;;;;;7.37;2.23;;;2.60;99.90;;;;;;4977509;28;20212;-78
2023/02/19 04:58:03;;;;;;;8.30;2.10;;;2.50;99.90;;;;;;4994921;28;20598;-72
2023/02/19 05:00:32;;;;;;;6.60;2.33;;;2.50;99.90;;;;;;4963298;28;20205;-83
2023/02/19 05:03:00;;;;;;;6.63;2.00;;;2.50;99.90;;;;;;4993655;28;20212;-70
2023/02/19 05:05:27;;;;;;;6.73;2.40;;;2.60;99.90;;;;;;4993356;28;20316;-72
2023/02/19 05:07:54;;;;;;;8.03;2.50;;;2.50;99.90;;;;;;4977071;28;20200;-72
2023/02/19 05:10:21;;;;;;;6.13;2.30;;;2.50;99.90;;;;;;4977031;28;20231;-70
2023/02/19 05:12:48;;;;;;;7.67;2.60;;;2.50;99.90;;;;;;4977031;28;20205;-78
2023/02/19 05:15:14;;;;;;;12.40;2.67;;;2.60;99.90;;;;;;4994872;28;20571;-81
2023/02/19 05:17:42;;;;;;;8.17;2.70;;;2.50;99.90;;;;;;4977895;28;20193;-80
2023/02/19 05:20:09;;;;;;;8.57;2.60;;;2.50;99.90;;;;;;4978091;28;20189;-78
2023/02/19 05:22:35;;;;;;;7.23;2.80;;;2.60;99.90;;;;;;5005317;28;20193;-78
2023/02/19 05:25:03;;;;;;;6.80;2.60;;;2.50;99.90;;;;;;4981316;28;20207;-75
2023/02/19 05:27:30;;;;;;;9.63;2.90;;;2.50;99.90;;;;;;4987976;28;20232;-79
2023/02/19 05:29:57;;;;;;;10.90;2.90;;;2.50;99.90;;;;;;4983281;28;20236;-79
2023/02/19 05:32:24;;;;;;;7.53;2.80;;;2.50;99.90;;;;;;4995150;28;20208;-81
2023/02/19 05:34:51;;;;;;;9.90;3.30;;;2.50;99.90;;;;;;4977479;28;20205;-80
2023/02/19 05:37:18;;;;;;;10.10;3.27;;;2.50;99.90;;;;;;4977109;28;20248;-81
2023/02/19 05:39:44;;;;;;;9.17;3.50;;;2.50;99.90;;;;;;4994316;28;20212;-81
2023/02/19 05:42:13;;;;;;;7.83;3.50;;;2.50;99.90;;;;;;4976974;28;20193;-82
2023/02/19 05:44:41;;;;;;;8.73;2.90;;;2.50;99.90;;;;;;4976697;28;20211;-80
2023/02/19 05:47:07;;;;;;;7.63;3.20;;;2.60;99.90;;;;;;4993695;28;20212;-83
2023/02/19 05:49:35;;;;;;;9.30;3.50;;;2.60;99.90;;;;;;4995386;28;20229;-80
2023/02/19 05:52:01;;;;;;;7.63;3.27;;;2.60;99.90;;;;;;4993449;28;20215;-81
2023/02/19 05:54:29;;;;;;;8.83;3.23;;;2.60;99.90;;;;;;4987878;28;20655;-83
2023/02/19 05:56:56;;;;;;;8.53;3.37;;;2.60;99.90;;;;;;4994847;28;20193;-82
2023/02/19 05:59:24;;;;;;;9.43;3.80;;;2.70;99.90;;;;;;4977245;28;20196;-83
2023/02/19 06:01:53;;;;;;;7.63;3.20;;;2.70;99.90;;;;;;4984041;28;20653;-83
2023/02/19 06:04:20;;;;;;;8.50;3.30;;;2.70;99.90;;;;;;4994640;28;20213;-82
2023/02/19 06:06:48;;;;;;;9.10;3.53;;;2.70;99.90;;;;;;4994535;28;20193;-73
2023/02/19 06:09:14;;;;;;;8.20;3.23;;;2.60;99.90;;;;;;4992792;28;20297;-71
2023/02/19 06:11:42;;;;;;;9.97;4.10;;;2.60;99.90;;;;;;4992699;28;20197;-80
2023/02/19 06:14:12;;;;;;;7.53;3.50;;;2.60;99.90;;;;;;4992943;28;20228;-76
2023/02/19 06:16:39;;;;;;;9.27;3.70;;;2.60;99.90;;;;;;4990150;28;20248;-80
2023/02/19 06:19:07;;;;;;;9.13;3.60;;;2.60;99.90;;;;;;4976639;28;20209;-77
2023/02/19 06:21:33;;;;;;;15.37;3.97;;;2.60;99.90;;;;;;4976290;28;20193;-83
2023/02/19 06:24:08;;;;;;;10.50;3.90;;;2.70;99.90;;;;;;4976951;28;20573;-83
2023/02/19 06:26:36;;;;;;;14.53;3.60;;;2.70;99.90;;;;;;4976279;28;20215;-81
2023/02/19 06:29:02;;;;;;;10.00;3.93;;;2.70;99.90;;;;;;4994015;28;20576;-77
2023/02/19 06:31:29;;;;;;;12.67;3.87;;;2.70;99.90;;;;;;4976265;28;20304;-80
2023/02/19 06:33:56;;;;;;;14.47;4.50;;;2.60;99.90;;;;;;4993647;28;20199;-77
2023/02/19 06:36:24;;;;;;;8.63;3.70;;;2.70;99.90;;;;;;4975870;28;20614;-73
2023/02/19 06:38:51;;;;;;;12.03;3.93;;;2.60;99.90;;;;;;4992190;28;20207;-80
2023/02/19 06:41:18;;;;;;;7.93;4.20;;;2.70;99.90;;;;;;4975843;28;20234;-82
2023/02/19 06:43:45;;;;;;;10.50;4.30;;;2.70;99.90;;;;;;4992946;28;20197;-79
2023/02/19 06:46:12;;;;;;;8.17;3.90;;;2.60;99.90;;;;;;4976261;28;20203;-83
2023/02/19 06:48:41;;;;;;;10.10;4.20;;;2.70;99.90;;;;;;4993640;28;20229;-83
2023/02/19 06:51:13;;;;;;;12.37;4.57;;;2.70;99.90;;;;;;4979174;28;20236;-74
2023/02/19 06:53:40;;;;;;;11.50;4.23;;;2.80;99.90;;;;;;4975520;28;20213;-75
2023/02/19 06:56:30;;;;;;;13.20;4.77;;;2.80;99.90;;;;;;4991995;28;20200;-82
2023/02/19 06:58:59;;;;;;;9.87;4.00;;;2.70;99.90;;;;;;4995993;28;20197;-84
2023/02/19 07:01:29;;;;;;;15.37;4.37;;;2.80;99.90;;;;;;4997472;28;20221;-71
2023/02/19 07:03:56;;;;;;;14.10;4.70;;;2.90;99.90;;;;;;4997054;28;20644;-72
2023/02/19 07:06:25;;;;;;;11.23;4.77;;;2.80;99.90;;;;;;4980308;28;20698;-85
2023/02/19 07:08:54;;;;;;;11.90;4.60;;;2.80;99.90;;;;;;4996720;28;20212;-76
2023/02/19 07:11:21;;;;;;;11.43;4.40;;;2.90;99.90;;;;;;4990858;28;20705;-77
2023/02/19 07:13:56;;;;;;;10.17;3.83;;;2.70;99.90;;;;;;4978392;28;20217;-74
2023/02/19 07:16:23;;;;;;;11.37;4.33;;;2.80;99.90;;;;;;4979141;28;20198;-76
2023/02/19 07:18:51;;;;;;;14.90;4.27;;;2.80;99.90;;;;;;4979146;28;20201;-75
2023/02/19 07:21:18;;;;;;;10.03;4.10;;;2.70;99.90;;;;;;4996723;28;20220;-74
2023/02/19 07:23:45;;;;;;;11.13;4.50;;;2.80;99.90;;;;;;4979038;28;20200;-76
2023/02/19 07:26:16;;;;;;;11.83;4.50;;;2.80;99.90;;;;;;4978703;28;20603;-77
2023/02/19 07:28:47;;;;;;;8.47;3.70;;;2.90;99.90;;;;;;4979107;28;20233;-75
2023/02/19 07:31:16;;;;;;;7.53;3.93;;;2.90;99.90;;;;;;4979134;28;20591;-77
2023/02/19 07:33:43;;;;;;;11.57;4.20;;;2.90;99.90;;;;;;4978972;28;20194;-76
2023/02/19 07:36:13;;;;;;;10.97;4.07;;;2.90;99.90;;;;;;4979079;28;20643;-74
2023/02/19 07:38:43;;;;;;;10.43;4.50;;;2.90;99.90;;;;;;4980245;28;20251;-77
2023/02/19 07:41:12;;;;;;;9.70;4.00;;;2.90;99.90;;;;;;5000532;28;20198;-73
2023/02/19 07:43:39;;;;;;;11.00;4.77;;;3.00;99.90;;;;;;4978895;28;20194;-72
2023/02/19 07:46:12;;;;;;;11.33;4.77;;;3.00;99.90;;;;;;4996313;28;20202;-67
2023/02/19 07:48:41;;;;;;;11.20;4.40;;;3.00;99.90;;;;;;4978766;28;20529;-68
2023/02/19 07:51:18;;;;;;;10.67;4.63;;;3.10;99.90;;;;;;4978394;28;20222;-68
2023/02/19 07:53:46;;;;;;;11.27;4.40;;;3.10;99.90;;;;;;4978547;28;20299;-65
2023/02/19 07:56:13;;;;;;;11.10;4.50;;;3.10;99.90;;;;;;4995749;28;20197;-66
2023/02/19 07:58:40;;;;;;;9.63;4.10;;;3.10;99.90;;;;;;4994726;28;20650;-66
2023/02/19 08:04:07;;;;;;;11.57;4.60;;;3.10;99.90;;;;;;4978382;28;20204;-67
2023/02/19 08:06:34;;;;;;;12.37;4.30;;;3.20;99.90;;;;;;4978145;28;20629;-71
2023/02/19 08:09:02;;;;;;;13.37;4.30;;;3.30;99.90;;;;;;4995977;28;20192;-68
2023/02/19 08:14:14;;;;;;;11.03;4.90;;;3.20;99.90;;;;;;4978187;28;20228;-75
2023/02/19 08:16:52;;;;;;;9.23;4.60;;;3.30;99.90;;;;;;4978098;28;20207;-77
2023/02/19 08:19:19;;;;;;;10.10;4.47;;;3.30;99.90;;;;;;4995947;28;20247;-76
2023/02/19 08:21:46;;;;;;;12.60;4.47;;;3.30;99.90;;;;;;4996725;28;20757;-77
2023/02/19 08:24:13;;;;;;;10.13;4.47;;;3.20;99.90;;;;;;4996055;28;20211;-77
2023/02/19 08:26:40;;;;;;;12.13;4.87;;;3.20;99.90;;;;;;4978530;28;20680;-78
2023/02/19 08:29:07;;;;;;;10.90;5.10;;;3.20;99.90;;;;;;4995950;28;20262;-76
2023/02/19 08:31:34;;;;;;;11.00;4.67;;;3.20;99.90;;;;;;4995683;28;20209;-79
2023/02/19 08:34:01;;;;;;;17.30;5.27;;;3.30;99.90;;;;;;4978160;28;20202;-75
2023/02/19 08:36:28;;;;;;;10.43;4.83;;;3.30;99.90;;;;;;4994314;28;20219;-74
2023/02/19 08:38:56;;;;;;;10.60;4.73;;;3.40;99.90;;;;;;4977497;28;20221;-75
2023/02/19 08:41:23;;;;;;;11.30;5.13;;;3.50;99.90;;;;;;4984349;28;20208;-77
2023/02/19 08:43:50;;;;;;;14.17;5.23;;;3.50;99.90;;;;;;4994042;28;20215;-76
2023/02/19 08:46:17;;;;;;;12.10;5.23;;;3.50;99.90;;;;;;4994951;28;20281;-77
2023/02/19 08:48:44;;;;;;;11.60;4.90;;;3.50;99.90;;;;;;4994021;28;20544;-78
2023/02/19 08:51:11;;;;;;;14.37;5.37;;;3.70;99.90;;;;;;4994296;28;20247;-77
2023/02/19 08:53:40;;;;;;;12.57;4.53;;;3.90;99.90;;;;;;5008028;28;20236;-79
2023/02/19 08:56:10;;;;;;;12.33;4.60;;;3.80;99.90;;;;;;5003413;28;20201;-80
2023/02/19 08:58:37;;;;;;;9.07;4.63;;;3.90;99.90;;;;;;4993972;28;20203;-82
2023/02/19 09:01:09;;;;;;;12.47;4.90;;;3.90;99.90;;;;;;4993706;28;20205;-76
2023/02/19 09:03:37;;;;;;;8.80;4.80;;;3.80;99.90;;;;;;4996238;28;20292;-75
2023/02/19 09:06:04;;;;;;;8.60;4.30;;;3.70;99.90;;;;;;4993420;28;20190;-77
2023/02/19 09:08:31;;;;;;;9.73;4.70;;;3.70;99.90;;;;;;4993644;28;20193;-78
2023/02/19 09:11:03;;;;;;;10.33;4.83;;;3.80;99.90;;;;;;4992978;28;20713;-73
2023/02/19 09:13:33;;;;;;;10.03;4.67;;;3.70;99.90;;;;;;5009346;28;20572;-75
2023/02/19 09:16:05;;;;;;;9.73;4.57;;;3.60;99.90;;;;;;4993092;28;20207;-74
2023/02/19 09:18:32;;;;;;;11.27;4.70;;;3.70;99.90;;;;;;4993149;28;20259;-72
2023/02/19 09:21:00;;;;;;;9.80;4.70;;;3.80;99.90;;;;;;4987090;28;20206;-77
2023/02/19 09:23:27;;;;;;;11.27;4.70;;;3.90;99.90;;;;;;4977194;28;20561;-78
2023/02/19 09:26:05;;;;;;;10.57;4.80;;;4.00;99.90;;;;;;4977398;28;20222;-74
2023/02/19 09:28:32;;;;;;;9.97;4.63;;;3.80;99.90;;;;;;4976887;28;20193;-72
2023/02/19 09:31:11;;;;;;;11.00;5.03;;;3.70;99.90;;;;;;4976775;28;20233;-76
2023/02/19 09:33:43;;;;;;;10.30;4.43;;;3.70;99.90;;;;;;4977100;28;20196;-78
2023/02/19 09:36:11;;;;;;;8.70;4.70;;;3.70;99.90;;;;;;4977191;28;20217;-76
2023/02/19 09:38:38;;;;;;;10.73;4.40;;;3.90;99.90;;;;;;4977202;28;20205;-80
2023/02/19 09:41:12;;;;;;;8.53;4.00;;;3.70;99.90;;;;;;4977550;28;20208;-80
2023/02/19 09:43:39;;;;;;;10.77;5.23;;;3.70;99.90;;;;;;4976905;28;20189;-80
2023/02/19 09:46:23;;;;;;;10.00;4.33;;;3.80;99.90;;;;;;4994063;28;20260;-76
2023/02/19 09:48:52;;;;;;;10.77;4.57;;;3.80;99.90;;;;;;4994549;28;20183;-77
2023/02/19 09:51:20;;;;;;;11.30;4.90;;;4.00;99.90;;;;;;4976716;28;20231;-80
2023/02/19 09:53:50;;;;;;;9.87;4.60;;;4.10;99.90;;;;;;4975181;28;20531;-76
2023/02/19 09:56:17;;;;;;;9.87;4.90;;;3.90;99.90;;;;;;4961242;28;20201;-77
2023/02/19 09:58:53;;;;;;;8.27;4.23;;;3.90;99.90;;;;;;4976395;28;20266;-75
2023/02/19 10:01:28;;;;;;;9.40;4.33;;;4.00;99.90;;;;;;4992827;28;20617;-74
2023/02/19 10:03:56;;;;;;;9.20;4.50;;;4.00;99.90;;;;;;4993682;28;20201;-75
2023/02/19 10:06:26;;;;;;;11.70;5.03;;;4.10;99.90;;;;;;4976198;28;20204;-74
2023/02/19 10:09:18;;;;;;;14.87;4.80;;;4.20;99.90;;;;;;4988785;28;20211;-80
2023/02/19 10:11:48;;;;;;;8.37;4.30;;;4.20;99.90;;;;;;4993570;28;20226;-75
2023/02/19 10:14:25;;;;;;;8.17;4.30;;;4.20;99.90;;;;;;4993757;28;20584;-74
2023/02/19 10:16:52;;;;;;;8.57;4.13;;;4.30;99.90;;;;;;4994016;28;20206;-79
2023/02/19 10:19:20;;;;;;;8.83;3.80;;;4.40;99.90;;;;;;4992693;28;20240;-78
2023/02/19 10:21:47;;;;;;;13.27;4.20;;;4.30;99.90;;;;;;4992810;28;20545;-78
2023/02/19 10:24:20;;;;;;;10.80;4.17;;;4.40;99.90;;;;;;4993664;28;20206;-76
2023/02/19 10:26:49;;;;;;;10.53;4.67;;;4.40;99.90;;;;;;4992011;28;20292;-74
2023/02/19 10:29:15;;;;;;;8.80;4.27;;;4.50;99.90;;;;;;5001244;28;20258;-76
2023/02/19 10:31:42;;;;;;;11.20;4.47;;;4.70;99.90;;;;;;4994743;28;20223;-75
2023/02/19 10:34:21;;;;;;;8.73;4.20;;;4.60;99.90;;;;;;5008099;28;20648;-76
2023/02/19 10:36:50;;;;;;;8.10;3.90;;;4.70;99.90;;;;;;4993674;28;20554;-76
2023/02/19 10:39:20;;;;;;;10.77;4.00;;;4.70;99.90;;;;;;4976244;28;20207;-74
2023/02/19 10:41:53;;;;;;;7.10;3.93;;;4.60;99.90;;;;;;4975831;28;20252;-75
2023/02/19 10:44:23;;;;;;;6.93;3.33;;;4.70;99.90;;;;;;4975622;28;20286;-75
2023/02/19 10:46:54;;;;;;;9.37;4.03;;;4.70;99.90;;;;;;4983672;28;20200;-74
2023/02/19 10:49:39;;;;;;;8.37;3.80;;;4.70;99.90;;;;;;4983629;28;20570;-75
2023/02/19 10:52:16;;;;;;;9.20;3.90;;;4.60;99.90;;;;;;4992615;28;20217;-74
2023/02/19 10:54:45;;;;;;;8.97;4.23;;;4.60;99.90;;;;;;4975519;28;20232;-76
2023/02/19 10:57:14;;;;;;;9.23;4.13;;;4.60;99.90;;;;;;4985542;28;20220;-74
2023/02/19 10:59:49;;;;;;;12.70;4.17;;;4.90;99.90;;;;;;4994415;28;20194;-68
2023/02/19 11:02:18;;;;;;;8.27;4.00;;;5.00;99.90;;;;;;4996532;28;20197;-70
2023/02/19 11:05:15;;;;;;;8.90;4.03;;;5.40;99.90;;;;;;4991420;28;20290;-71
2023/02/19 11:07:53;;;;;;;7.33;3.63;;;5.80;99.90;;;;;;4984169;28;20195;-71
2023/02/19 11:10:31;;;;;;;8.77;4.03;;;6.10;99.90;;;;;;4975053;28;20636;-72
2023/02/19 11:13:12;;;;;;;9.77;3.83;;;5.70;99.90;;;;;;4994463;28;20198;-74
2023/02/19 11:15:40;;;;;;;6.60;3.60;;;5.30;99.90;;;;;;4996481;28;20190;-69
2023/02/19 11:18:17;;;;;;;9.63;3.53;;;5.20;99.90;;;;;;4994777;28;20195;-74
2023/02/19 11:20:59;;;;;;;6.73;3.30;;;5.20;99.90;;;;;;4994475;28;20213;-72
2023/02/19 11:23:46;;;;;;;7.97;3.43;;;5.20;99.90;;;;;;5012374;28;20198;-71
2023/02/19 11:26:18;;;;;;;6.97;3.30;;;5.00;99.90;;;;;;4999282;28;20206;-72
2023/02/19 11:28:53;;;;;;;6.90;2.77;;;5.10;99.90;;;;;;4991094;28;20311;-71
2023/02/19 11:31:31;;;;;;;9.97;3.07;;;5.20;99.90;;;;;;4975135;28;20215;-72
2023/02/19 11:34:00;;;;;;;8.13;3.20;;;5.10;99.90;;;;;;4975367;28;20197;-73
2023/02/19 11:36:31;;;;;;;7.73;3.10;;;5.20;99.90;;;;;;4991331;28;20287;-74
2023/02/19 11:39:22;;;;;;;8.83;3.57;;;5.40;99.90;;;;;;4992527;28;20558;-72
2023/02/19 11:42:07;;;;;;;7.20;3.67;;;5.50;99.90;;;;;;4974922;28;20208;-73
2023/02/19 11:44:49;;;;;;;8.73;3.70;;;5.50;99.90;;;;;;4982778;28;20215;-73
2023/02/19 11:47:36;;;;;;;9.50;3.20;;;5.30;99.90;;;;;;4996412;28;20573;-65
2023/02/19 11:50:25;;;;;;;8.00;3.27;;;5.50;99.90;;;;;;4994820;28;20673;-66
2023/02/19 11:52:58;;;;;;;8.70;3.07;;;5.30;99.90;;;;;;4994782;28;20304;-71
2023/02/19 11:55:38;;;;;;;6.87;3.00;;;5.30;99.90;;;;;;4994637;28;20573;-72
2023/02/19 11:59:04;;;;;;;9.47;2.90;;;5.40;99.90;;;;;;4996045;28;20655;-72
2023/02/19 12:01:39;;;;;;;6.80;2.90;;;5.20;99.90;;;;;;4916675;29;20206;-66
2023/02/19 12:04:33;;;;;;;7.77;2.67;;;5.40;99.90;;;;;;4900865;29;20212;-66
2023/02/19 12:07:24;;;;;;;6.27;2.37;;;5.40;99.90;;;;;;4916884;29;20292;-73
2023/02/19 12:10:31;;;;;;;5.80;2.43;;;5.50;99.90;;;;;;4916588;29;20206;-70
2023/02/19 12:13:24;;;;;;;6.40;2.90;;;5.70;99.90;;;;;;4916517;29;20210;-72
2023/02/19 12:16:09;;;;;;;7.57;2.60;;;6.00;99.90;;;;;;4879991;29;20700;-73
2023/02/19 12:19:02;;;;;;;6.90;2.53;;;6.30;99.90;;;;;;4916510;29;20214;-71
2023/02/19 12:21:50;;;;;;;5.60;2.43;;;6.50;99.90;;;;;;4916364;29;20213;-72
2023/02/19 12:24:32;;;;;;;3.70;2.03;;;6.60;99.90;;;;;;4900680;29;20202;-73
2023/02/19 12:27:32;;;;;;;6.13;2.00;;;6.80;99.90;;;;;;4889948;29;20210;-69
2023/02/19 12:30:12;;;;;;;5.40;2.30;;;7.80;99.90;;;;;;4888048;29;20296;-67
2023/02/19 12:33:01;;;;;;;5.87;2.07;;;8.50;99.90;;;;;;4874795;29;20233;-71
2023/02/19 12:35:51;;;;;;;4.90;2.13;;;8.90;99.90;;;;;;4877573;29;20205;-66
2023/02/19 12:38:32;;;;;;;4.03;1.93;;;9.20;99.90;;;;;;4953090;28;20212;-70
2023/02/19 12:41:18;;;;;;;5.27;2.20;;;10.00;99.90;;;;;;4998872;28;20282;-68
2023/02/19 12:44:14;;;;;;;6.27;2.07;;;10.00;99.90;;;;;;4987117;28;20603;-73
2023/02/19 12:46:48;;;;;;;6.13;2.20;;;10.20;99.90;;;;;;4989792;28;20634;-75
2023/02/19 12:49:23;;;;;;;7.87;2.67;;;8.50;99.90;;;;;;4958451;28;20292;-74
2023/02/19 12:51:57;;;;;;;4.93;2.27;;;7.60;99.90;;;;;;4975560;28;20793;-75
2023/02/19 12:54:30;;;;;;;3.87;2.17;;;7.30;99.90;;;;;;4958334;28;20567;-73
2023/02/19 12:57:00;;;;;;;5.07;2.33;;;6.90;99.90;;;;;;4957088;28;20205;-76
2023/02/19 12:59:36;;;;;;;5.77;2.40;;;6.50;99.90;;;;;;4958135;28;20207;-74
2023/02/19 13:02:22;;;;;;;5.80;2.40;;;6.10;99.90;;;;;;4974424;28;20207;-77
2023/02/19 13:05:19;;;;;;;5.63;2.30;;;5.80;99.90;;;;;;4958113;28;20658;-77
2023/02/19 13:07:56;;;;;;;4.93;2.40;;;5.60;99.90;;;;;;4975450;28;20207;-76
2023/02/19 13:10:32;;;;;;;6.50;2.00;;;5.60;99.90;;;;;;4958576;28;20236;-78
2023/02/19 13:13:05;;;;;;;5.77;2.13;;;5.70;99.90;;;;;;4990737;28;20212;-76
2023/02/19 13:15:42;;;;;;;5.53;2.17;;;5.70;99.90;;;;;;4977375;28;20208;-77
2023/02/19 13:18:19;;;;;;;4.33;2.30;;;5.40;99.90;;;;;;4994980;28;20660;-77
2023/02/19 13:21:07;;;;;;;6.53;2.50;;;5.40;99.90;;;;;;4995070;28;20193;-77
2023/02/19 13:26:43;;;;;;;6.77;2.10;;;4.90;99.90;;;;;;4957258;28;20202;-73
2023/02/19 13:29:21;;;;;;;7.73;2.73;;;4.90;99.90;;;;;;4979603;28;20222;-73
2023/02/19 13:32:23;;;;;;;5.70;2.70;;;5.00;99.90;;;;;;4955117;29;20229;-76
2023/02/19 13:35:26;;;;;;;5.30;2.30;;;5.00;99.90;;;;;;4954641;29;20309;-80
2023/02/19 13:38:01;;;;;;;5.63;2.30;;;5.10;99.90;;;;;;4954331;28;20298;-76
2023/02/19 13:40:52;;;;;;;6.07;2.47;;;5.00;99.90;;;;;;4960787;28;20642;-81
2023/02/19 13:43:29;;;;;;;6.37;2.40;;;4.90;99.90;;;;;;4983305;28;20299;-76
2023/02/19 13:46:06;;;;;;;6.10;2.20;;;4.80;99.90;;;;;;4987997;28;20201;-76
2023/02/19 13:48:37;;;;;;;8.23;2.60;;;4.80;99.90;;;;;;4991651;28;20271;-79
2023/02/19 13:51:15;;;;;;;8.77;2.90;;;4.80;99.90;;;;;;4957201;28;20236;-79